Time;durP1;ratioP1;P1;durP2;ratioP2;P2;SDS_P1;SDS_P2;PMS_P1;PMS_P2;Temp;Humidity;BMP_temperature;BMP_pressure;BME280_temperature;BME280_humidity;BME280_pressure;Samples;Min_cycle;Max_cycle;Signal;HPM_P1;HPM_P2
2022/08/10 00:00:21;;;;;;;6.07;3.33;;;15.80;99.90;;;;;;5051212;28;20970;-79
2022/08/10 00:02:55;;;;;;;3.42;2.60;;;15.70;99.90;;;;;;5051424;28;20441;-78
2022/08/10 00:05:22;;;;;;;6.90;3.30;;;15.70;99.90;;;;;;5050972;28;20071;-78
2022/08/10 00:07:48;;;;;;;6.40;3.45;;;15.70;99.90;;;;;;5050875;28;20462;-78
2022/08/10 00:10:16;;;;;;;6.55;3.15;;;15.60;99.90;;;;;;5051167;28;20021;-78
2022/08/10 00:12:42;;;;;;;7.50;3.25;;;15.60;99.90;;;;;;5044530;28;20032;-78
2022/08/10 00:15:09;;;;;;;7.40;3.28;;;15.60;99.90;;;;;;5046680;28;20523;-78
2022/08/10 00:17:35;;;;;;;6.43;3.40;;;15.50;99.90;;;;;;5050863;28;20031;-78
2022/08/10 00:20:01;;;;;;;8.32;3.38;;;15.50;99.90;;;;;;5050729;28;20032;-79
2022/08/10 00:22:26;;;;;;;7.32;3.38;;;15.50;99.90;;;;;;5050968;28;20078;-79
2022/08/10 00:24:56;;;;;;;7.57;3.35;;;15.40;99.90;;;;;;5051041;28;20060;-78
2022/08/10 00:27:22;;;;;;;5.65;3.40;;;15.40;99.90;;;;;;5050861;28;20036;-78
2022/08/10 00:29:47;;;;;;;5.72;3.20;;;15.40;99.90;;;;;;5050418;28;20496;-78
2022/08/10 00:32:13;;;;;;;8.20;3.60;;;15.30;99.90;;;;;;5051004;28;20021;-78
2022/08/10 00:34:39;;;;;;;6.65;3.35;;;15.30;99.90;;;;;;5050578;28;20025;-78
2022/08/10 00:37:05;;;;;;;5.32;3.58;;;15.30;99.90;;;;;;5050798;28;20041;-78
2022/08/10 00:39:30;;;;;;;7.47;3.08;;;15.20;99.90;;;;;;5032716;28;20119;-78
2022/08/10 00:41:56;;;;;;;6.10;3.53;;;15.20;99.90;;;;;;5050954;28;20129;-78
2022/08/10 00:44:21;;;;;;;4.30;3.13;;;15.20;99.90;;;;;;5050948;28;20128;-78
2022/08/10 00:46:47;;;;;;;6.63;3.20;;;15.20;99.90;;;;;;5050513;28;20032;-78
2022/08/10 00:49:13;;;;;;;7.28;3.10;;;15.20;99.90;;;;;;5050472;28;20041;-78
2022/08/10 00:51:40;;;;;;;4.28;3.10;;;15.20;99.90;;;;;;5050523;28;20032;-78
2022/08/10 00:54:06;;;;;;;6.45;3.30;;;15.20;99.90;;;;;;5050674;28;20029;-78
2022/08/10 00:56:31;;;;;;;6.85;3.40;;;15.10;99.90;;;;;;5050024;28;20128;-79
2022/08/10 00:58:57;;;;;;;7.35;2.95;;;15.10;99.90;;;;;;5050442;28;20029;-78
2022/08/10 01:01:23;;;;;;;6.20;3.08;;;15.10;99.90;;;;;;5050439;28;20028;-78
2022/08/10 01:03:49;;;;;;;7.95;3.17;;;15.10;99.90;;;;;;5050389;28;20513;-78
2022/08/10 01:06:30;;;;;;;4.40;2.90;;;15.10;99.90;;;;;;5050241;28;20037;-79
2022/08/10 01:09:18;;;;;;;5.82;3.15;;;15.10;99.90;;;;;;5050262;28;20036;-78
2022/08/10 01:11:56;;;;;;;5.00;3.20;;;15.10;99.90;;;;;;5047334;28;20517;-78
2022/08/10 01:14:34;;;;;;;5.28;3.25;;;15.10;99.90;;;;;;5049784;28;20035;-78
2022/08/10 01:17:10;;;;;;;5.18;2.90;;;15.10;99.90;;;;;;5046518;28;20857;-78
2022/08/10 01:20:20;;;;;;;9.05;3.22;;;15.10;99.90;;;;;;5050179;28;20127;-78
2022/08/10 01:23:15;;;;;;;6.72;2.97;;;15.00;99.90;;;;;;5050433;28;20037;-78
2022/08/10 01:25:50;;;;;;;5.25;3.20;;;15.00;99.90;;;;;;5050174;28;20035;-78
2022/08/10 01:28:22;;;;;;;5.93;3.28;;;15.00;99.90;;;;;;5053288;28;20124;-78
2022/08/10 01:30:52;;;;;;;4.55;3.20;;;15.00;99.90;;;;;;5054167;28;20049;-79
2022/08/10 01:33:23;;;;;;;6.60;3.45;;;15.00;99.90;;;;;;5053569;28;20153;-79
2022/08/10 01:36:07;;;;;;;5.22;3.53;;;14.90;99.90;;;;;;5053870;28;20035;-79
2022/08/10 01:38:44;;;;;;;5.93;3.03;;;14.90;99.90;;;;;;5053833;28;20417;-79
2022/08/10 01:41:26;;;;;;;9.45;3.63;;;14.90;99.90;;;;;;5053810;28;20028;-78
2022/08/10 01:44:28;;;;;;;9.13;3.45;;;14.90;99.90;;;;;;5053842;28;20039;-78
2022/08/10 01:48:27;;;;;;;5.22;3.35;;;14.90;99.90;;;;;;5031944;28;20170;-78
2022/08/10 01:49:47;;;;;;;5.10;3.42;;;14.90;99.90;;;;;;5053504;28;20035;-79
2022/08/10 01:52:17;;;;;;;4.75;3.45;;;14.80;99.90;;;;;;5053458;28;20071;-79
2022/08/10 01:54:44;;;;;;;4.53;3.50;;;14.80;99.90;;;;;;5051736;28;20052;-78
2022/08/10 01:57:12;;;;;;;6.40;3.83;;;14.80;99.90;;;;;;5053394;28;20064;-78
2022/08/10 01:59:40;;;;;;;6.68;3.50;;;14.80;99.90;;;;;;5053330;28;20024;-79
2022/08/10 02:02:09;;;;;;;7.20;4.57;;;14.80;99.90;;;;;;5053122;28;20040;-78
2022/08/10 02:04:38;;;;;;;5.35;3.80;;;14.80;99.90;;;;;;5053327;28;20068;-78
2022/08/10 02:07:07;;;;;;;7.93;3.65;;;14.80;99.90;;;;;;5053356;28;20025;-78
2022/08/10 02:09:37;;;;;;;6.80;3.80;;;14.80;99.90;;;;;;5053268;28;20109;-78
2022/08/10 02:12:07;;;;;;;6.13;3.63;;;14.70;99.90;;;;;;5049993;28;20018;-79
2022/08/10 02:14:37;;;;;;;5.70;4.10;;;14.70;99.90;;;;;;5050824;28;20056;-78
2022/08/10 02:17:08;;;;;;;5.68;4.47;;;14.70;99.90;;;;;;5035083;28;20079;-79
2022/08/10 02:19:38;;;;;;;8.98;4.45;;;14.70;99.90;;;;;;5052998;28;20013;-78
2022/08/10 02:22:06;;;;;;;7.30;3.83;;;14.70;99.90;;;;;;5052696;28;20375;-78
2022/08/10 02:24:33;;;;;;;6.82;3.60;;;14.70;99.90;;;;;;5052476;28;20554;-78
2022/08/10 02:27:00;;;;;;;7.05;4.30;;;14.70;99.90;;;;;;5052842;28;20037;-79
2022/08/10 02:29:27;;;;;;;8.50;4.50;;;14.70;99.90;;;;;;5052664;28;20525;-78
2022/08/10 02:31:54;;;;;;;4.57;3.60;;;14.60;99.90;;;;;;5053025;28;20020;-78
2022/08/10 02:34:22;;;;;;;4.18;3.50;;;14.60;99.90;;;;;;5034823;28;20025;-79
2022/08/10 02:36:52;;;;;;;5.20;3.30;;;14.60;99.90;;;;;;5053042;28;20029;-78
2022/08/10 02:39:20;;;;;;;4.20;3.28;;;14.60;99.90;;;;;;5052496;28;20025;-78
2022/08/10 02:41:52;;;;;;;6.97;3.88;;;14.60;99.90;;;;;;5052617;28;20033;-79
2022/08/10 02:45:14;;;;;;;7.28;3.50;;;14.60;99.90;;;;;;5052499;28;20115;-79
2022/08/10 02:47:45;;;;;;;5.93;3.42;;;14.50;99.90;;;;;;4952323;29;20185;-78
2022/08/10 02:50:25;;;;;;;5.75;3.53;;;14.50;99.90;;;;;;4952295;29;20027;-78
2022/08/10 02:53:16;;;;;;;6.97;3.63;;;14.50;99.90;;;;;;5011555;28;20039;-78
2022/08/10 02:55:43;;;;;;;4.78;3.28;;;14.50;99.90;;;;;;5051865;28;20148;-78
2022/08/10 02:58:17;;;;;;;5.80;3.85;;;14.40;99.90;;;;;;5052416;28;20029;-78
2022/08/10 03:00:47;;;;;;;4.68;3.85;;;14.40;99.90;;;;;;5052428;28;20021;-78
2022/08/10 03:03:37;;;;;;;4.68;4.00;;;14.40;99.90;;;;;;5052494;28;20475;-78
2022/08/10 03:06:09;;;;;;;6.35;4.35;;;14.40;99.90;;;;;;5052052;28;20138;-78
2022/08/10 03:08:40;;;;;;;5.70;4.32;;;14.40;99.90;;;;;;5052051;28;20017;-78
2022/08/10 03:11:09;;;;;;;6.07;3.92;;;14.40;99.90;;;;;;5052476;28;20021;-78
2022/08/10 03:13:35;;;;;;;6.75;3.80;;;14.30;99.90;;;;;;5041498;28;20044;-78
2022/08/10 03:16:03;;;;;;;5.18;3.80;;;14.30;99.90;;;;;;5052086;28;20037;-79
2022/08/10 03:18:30;;;;;;;6.63;3.60;;;14.30;99.90;;;;;;5052091;28;20396;-78
2022/08/10 03:20:57;;;;;;;6.30;3.80;;;14.30;99.90;;;;;;5051990;28;20052;-78
2022/08/10 03:23:24;;;;;;;8.35;3.92;;;14.20;99.90;;;;;;5033925;28;20033;-78
2022/08/10 03:25:54;;;;;;;5.22;4.03;;;14.20;99.90;;;;;;5052100;28;20064;-78
2022/08/10 03:28:21;;;;;;;7.15;3.95;;;14.20;99.90;;;;;;5051087;28;20033;-79
2022/08/10 03:30:47;;;;;;;8.23;3.90;;;14.10;99.90;;;;;;5034025;28;20035;-79
2022/08/10 03:33:14;;;;;;;6.28;4.20;;;14.10;99.90;;;;;;5052095;28;20060;-79
2022/08/10 03:35:40;;;;;;;5.85;3.90;;;14.10;99.90;;;;;;5051986;28;20029;-79
2022/08/10 03:38:05;;;;;;;5.13;3.75;;;14.10;99.90;;;;;;5051672;28;20033;-79
2022/08/10 03:40:34;;;;;;;6.65;4.25;;;14.10;99.90;;;;;;5052299;28;20060;-79
2022/08/10 03:43:02;;;;;;;5.90;4.00;;;14.00;99.90;;;;;;5051357;28;20231;-79
2022/08/10 03:45:30;;;;;;;10.38;3.92;;;14.00;99.90;;;;;;5033662;28;20029;-79
2022/08/10 03:47:57;;;;;;;7.47;3.78;;;14.00;99.90;;;;;;5051165;28;20057;-79
2022/08/10 03:50:27;;;;;;;5.03;3.83;;;14.00;99.90;;;;;;5050771;28;20092;-79
2022/08/10 03:52:54;;;;;;;5.00;3.72;;;13.90;99.90;;;;;;5050945;28;20027;-79
2022/08/10 03:55:20;;;;;;;6.38;3.90;;;13.90;99.90;;;;;;5050882;28;20104;-79
2022/08/10 03:57:47;;;;;;;5.05;3.72;;;13.90;99.90;;;;;;5051004;28;20039;-79
2022/08/10 04:00:17;;;;;;;6.05;3.97;;;13.80;99.90;;;;;;5051280;28;20066;-79
2022/08/10 04:02:45;;;;;;;7.00;3.85;;;13.80;99.90;;;;;;5051470;28;20074;-79
2022/08/10 04:05:12;;;;;;;11.30;4.72;;;13.80;99.90;;;;;;5051091;28;20040;-79
2022/08/10 04:07:39;;;;;;;13.98;3.97;;;13.80;99.90;;;;;;5051188;28;20508;-79
2022/08/10 04:10:05;;;;;;;10.75;3.72;;;13.80;99.90;;;;;;5050212;28;20112;-80
2022/08/10 04:12:30;;;;;;;10.80;4.05;;;13.70;99.90;;;;;;5046744;28;20029;-79
2022/08/10 04:14:56;;;;;;;13.32;4.45;;;13.70;99.90;;;;;;5044652;28;20108;-79
2022/08/10 04:17:23;;;;;;;6.47;3.80;;;13.70;99.90;;;;;;5050649;28;20472;-79
2022/08/10 04:19:51;;;;;;;6.25;4.40;;;13.70;99.90;;;;;;5050324;28;20040;-79
2022/08/10 04:22:22;;;;;;;7.32;3.80;;;13.70;99.90;;;;;;5032092;28;20088;-80
2022/08/10 04:24:57;;;;;;;7.07;3.92;;;13.70;99.90;;;;;;5050023;28;20016;-80
2022/08/10 04:27:23;;;;;;;5.65;3.83;;;13.70;99.90;;;;;;5032335;28;20033;-80
2022/08/10 04:29:50;;;;;;;5.50;4.03;;;13.70;99.90;;;;;;5047193;28;20029;-80
2022/08/10 04:32:19;;;;;;;8.55;4.00;;;13.70;99.90;;;;;;5047690;28;20044;-80
2022/08/10 04:34:46;;;;;;;9.90;3.97;;;13.70;99.90;;;;;;5050612;28;20024;-80
2022/08/10 04:37:14;;;;;;;10.55;4.13;;;13.70;99.90;;;;;;5050463;28;20025;-80
2022/08/10 04:39:40;;;;;;;6.40;3.63;;;13.80;99.90;;;;;;5049978;28;20117;-80
2022/08/10 04:42:06;;;;;;;6.68;3.75;;;13.80;99.90;;;;;;5045429;28;20154;-80
2022/08/10 04:44:32;;;;;;;7.00;4.03;;;13.90;99.90;;;;;;5049994;28;20025;-80
2022/08/10 04:46:58;;;;;;;9.25;3.88;;;13.90;99.90;;;;;;5050350;28;20385;-80
2022/08/10 04:49:24;;;;;;;10.02;4.13;;;13.90;99.90;;;;;;5050638;28;20021;-80
2022/08/10 04:51:49;;;;;;;16.02;4.55;;;14.00;99.90;;;;;;5048276;28;20033;-80
2022/08/10 04:54:15;;;;;;;8.52;4.38;;;14.00;99.90;;;;;;5050297;28;20060;-80
2022/08/10 04:56:40;;;;;;;15.63;5.15;;;14.00;99.90;;;;;;5050274;28;20041;-80
2022/08/10 04:59:08;;;;;;;7.55;3.90;;;14.10;99.90;;;;;;5046648;28;20036;-80
2022/08/10 05:01:35;;;;;;;6.22;4.10;;;14.10;99.90;;;;;;5049922;28;20048;-80
2022/08/10 05:04:01;;;;;;;10.68;4.50;;;14.20;99.90;;;;;;5033388;28;20139;-80
2022/08/10 05:06:26;;;;;;;7.20;3.88;;;14.20;99.90;;;;;;5052350;28;20027;-80
2022/08/10 05:08:52;;;;;;;10.52;4.55;;;14.30;99.90;;;;;;5052164;28;20060;-80
2022/08/10 05:11:17;;;;;;;10.15;4.28;;;14.30;99.90;;;;;;5054012;28;20021;-81
2022/08/10 05:13:43;;;;;;;12.85;4.07;;;14.40;99.90;;;;;;5051878;28;20107;-81
2022/08/10 05:16:08;;;;;;;7.50;4.07;;;14.40;99.90;;;;;;5054460;28;20028;-81
2022/08/10 05:18:34;;;;;;;8.82;3.80;;;14.50;99.90;;;;;;5053978;28;20033;-81
2022/08/10 05:20:59;;;;;;;6.80;3.45;;;14.50;99.90;;;;;;5053881;28;20048;-81
2022/08/10 05:23:25;;;;;;;8.32;3.90;;;14.60;99.90;;;;;;5054252;28;20082;-81
2022/08/10 05:25:51;;;;;;;4.75;3.63;;;14.70;99.90;;;;;;5054357;28;20144;-81
2022/08/10 05:28:16;;;;;;;12.40;5.20;;;14.70;99.90;;;;;;5036170;28;20108;-76
2022/08/10 05:30:42;;;;;;;7.50;4.28;;;14.80;99.90;;;;;;5053024;28;20025;-74
2022/08/10 05:33:07;;;;;;;7.45;3.55;;;14.90;99.90;;;;;;5053145;28;20024;-74
2022/08/10 05:35:33;;;;;;;8.52;4.00;;;15.00;99.90;;;;;;5053004;28;20078;-75
2022/08/10 05:38:00;;;;;;;11.00;3.60;;;15.10;99.90;;;;;;5052945;28;20021;-74
2022/08/10 05:40:27;;;;;;;10.02;3.47;;;15.10;99.90;;;;;;5051811;28;20448;-75
2022/08/10 05:42:52;;;;;;;6.40;3.47;;;15.20;99.90;;;;;;5053916;28;20385;-75
2022/08/10 05:45:21;;;;;;;7.35;3.90;;;15.30;99.90;;;;;;5024204;28;20033;-75
2022/08/10 05:47:47;;;;;;;9.25;3.58;;;15.40;99.90;;;;;;5051569;28;20040;-75
2022/08/10 05:50:15;;;;;;;8.48;3.47;;;15.50;99.90;;;;;;5052726;28;20507;-75
2022/08/10 05:52:41;;;;;;;6.47;3.30;;;15.60;99.90;;;;;;5049461;28;20390;-75
2022/08/10 05:55:08;;;;;;;6.18;3.53;;;15.70;99.90;;;;;;5048115;28;20048;-74
2022/08/10 05:57:35;;;;;;;3.85;2.90;;;15.70;99.90;;;;;;5045961;28;20029;-75
2022/08/10 06:00:06;;;;;;;9.73;3.47;;;15.80;99.90;;;;;;5045589;28;20048;-75
2022/08/10 06:02:36;;;;;;;5.15;3.00;;;15.90;99.90;;;;;;5027819;28;20043;-75
2022/08/10 06:05:24;;;;;;;8.32;3.08;;;16.00;99.90;;;;;;5045281;28;20378;-75
2022/08/10 06:08:07;;;;;;;6.53;3.40;;;16.10;99.90;;;;;;5027060;28;20033;-75
2022/08/10 06:10:36;;;;;;;8.05;2.90;;;16.20;99.90;;;;;;5046042;28;20033;-75
2022/08/10 06:15:49;;;;;;;5.13;2.92;;;16.40;99.90;;;;;;5045505;28;20072;-74
2022/08/10 06:18:17;;;;;;;8.60;2.97;;;16.50;99.90;;;;;;5045563;28;20044;-74
2022/08/10 06:20:43;;;;;;;9.13;2.70;;;16.70;99.90;;;;;;5046090;28;20013;-75
2022/08/10 06:23:10;;;;;;;7.22;3.05;;;16.70;99.90;;;;;;5043108;28;20031;-75
2022/08/10 06:25:36;;;;;;;6.30;3.42;;;16.90;99.90;;;;;;5045659;28;20025;-75
2022/08/10 06:28:03;;;;;;;6.78;3.17;;;16.90;99.90;;;;;;5045631;28;20470;-74
2022/08/10 06:30:29;;;;;;;6.65;2.97;;;17.10;99.90;;;;;;5045534;28;20071;-75
2022/08/10 06:32:56;;;;;;;8.00;2.78;;;17.20;99.90;;;;;;5044528;28;20515;-75
2022/08/10 06:35:26;;;;;;;9.05;2.70;;;17.30;99.90;;;;;;5045728;28;20474;-75
2022/08/10 06:37:54;;;;;;;8.02;2.90;;;17.40;99.90;;;;;;5052532;28;20036;-72
2022/08/10 06:40:20;;;;;;;6.43;2.70;;;17.50;99.90;;;;;;5054054;28;20025;-71
2022/08/10 06:42:47;;;;;;;7.40;2.40;;;17.60;99.90;;;;;;5053758;28;20037;-72
2022/08/10 06:45:20;;;;;;;9.90;2.90;;;17.60;99.90;;;;;;5053520;28;20056;-71
2022/08/10 06:47:58;;;;;;;7.80;2.80;;;17.80;99.90;;;;;;5053672;28;20021;-71
2022/08/10 06:50:42;;;;;;;6.60;2.60;;;17.90;99.90;;;;;;5053809;28;20092;-71
2022/08/10 06:53:14;;;;;;;3.85;2.47;;;18.00;99.90;;;;;;5053957;28;20028;-71
2022/08/10 06:55:44;;;;;;;6.15;2.60;;;18.10;99.90;;;;;;5017721;28;1047350;-70
2022/08/10 06:58:11;;;;;;;5.90;2.60;;;18.10;99.90;;;;;;5055005;28;20086;-71
2022/08/10 07:00:41;;;;;;;7.75;2.95;;;18.20;99.90;;;;;;5054950;28;20603;-71
2022/08/10 07:03:13;;;;;;;11.88;2.88;;;18.30;99.90;;;;;;5054707;28;20025;-71
2022/08/10 07:05:43;;;;;;;11.25;2.70;;;18.40;99.90;;;;;;5054646;28;20043;-71
2022/08/10 07:08:09;;;;;;;8.30;2.45;;;18.50;99.90;;;;;;5054570;28;20036;-72
2022/08/10 07:10:36;;;;;;;5.35;2.30;;;18.60;99.90;;;;;;5054616;28;20032;-71
2022/08/10 07:13:03;;;;;;;7.32;2.33;;;18.70;99.90;;;;;;5054536;28;20025;-71
2022/08/10 07:15:30;;;;;;;5.22;2.80;;;18.80;99.90;;;;;;5054575;28;20061;-71
2022/08/10 07:17:56;;;;;;;4.20;2.72;;;18.90;99.90;;;;;;5054583;28;20033;-71
2022/08/10 07:20:22;;;;;;;6.07;2.33;;;19.10;99.90;;;;;;5054630;28;20029;-71
2022/08/10 07:22:50;;;;;;;7.50;2.20;;;19.10;99.90;;;;;;5054781;28;20063;-75
2022/08/10 07:25:20;;;;;;;3.95;2.10;;;19.20;99.90;;;;;;5053594;28;20040;-71
2022/08/10 07:27:46;;;;;;;7.13;2.17;;;19.30;99.90;;;;;;5054932;28;20072;-71
2022/08/10 07:30:12;;;;;;;3.33;2.08;;;19.40;99.90;;;;;;5054483;28;20029;-71
2022/08/10 07:32:42;;;;;;;4.32;2.05;;;19.50;99.90;;;;;;5054142;28;20029;-71
2022/08/10 07:35:12;;;;;;;6.88;2.20;;;19.60;99.90;;;;;;5054579;28;20454;-71
2022/08/10 07:37:39;;;;;;;11.35;2.70;;;19.70;99.90;;;;;;5054245;28;20119;-71
2022/08/10 07:40:07;;;;;;;4.13;2.08;;;19.80;99.90;;;;;;5051358;28;20035;-71
2022/08/10 07:42:36;;;;;;;8.93;2.40;;;19.90;99.90;;;;;;5052033;28;20043;-71
2022/08/10 07:45:03;;;;;;;6.60;2.25;;;20.00;99.90;;;;;;5052412;28;20028;-70
2022/08/10 07:47:38;;;;;;;6.70;1.90;;;20.10;99.90;;;;;;5053342;28;20171;-71
2022/08/10 07:50:07;;;;;;;4.82;2.15;;;20.10;99.90;;;;;;5050322;28;20021;-71
2022/08/10 07:52:36;;;;;;;6.20;1.92;;;20.20;99.90;;;;;;5050290;28;20040;-72
2022/08/10 07:55:05;;;;;;;5.70;1.83;;;20.30;99.90;;;;;;5052193;28;20119;-71
2022/08/10 07:57:35;;;;;;;5.97;2.30;;;20.30;99.90;;;;;;5049584;28;20029;-71
2022/08/10 08:00:06;;;;;;;9.50;2.22;;;20.40;99.90;;;;;;5052172;28;20029;-71
2022/08/10 08:02:48;;;;;;;5.05;2.72;;;20.60;99.90;;;;;;5049547;28;20104;-71
2022/08/10 08:05:14;;;;;;;5.40;1.95;;;20.60;99.90;;;;;;5051594;28;20057;-71
2022/08/10 08:07:41;;;;;;;8.77;2.20;;;20.70;99.90;;;;;;5053337;28;20028;-71
2022/08/10 08:10:10;;;;;;;6.00;1.70;;;20.80;99.90;;;;;;5053466;28;20195;-71
2022/08/10 08:12:37;;;;;;;15.57;2.40;;;20.90;99.90;;;;;;5053831;28;20053;-71
2022/08/10 08:15:04;;;;;;;5.22;2.00;;;20.90;99.90;;;;;;5053284;28;20017;-71
2022/08/10 08:17:32;;;;;;;7.32;2.55;;;21.00;99.90;;;;;;5053745;28;20071;-71
2022/08/10 08:19:58;;;;;;;4.45;2.20;;;21.00;99.90;;;;;;5053202;28;20431;-71
2022/08/10 08:22:26;;;;;;;3.20;1.90;;;21.10;99.90;;;;;;5053178;28;20074;-71
2022/08/10 08:24:54;;;;;;;6.40;2.00;;;21.20;99.90;;;;;;5053183;28;20029;-71
2022/08/10 08:27:21;;;;;;;8.95;2.55;;;21.20;99.90;;;;;;5053058;28;20019;-70
2022/08/10 08:29:48;;;;;;;6.15;1.60;;;21.30;99.90;;;;;;5053087;28;20112;-71
2022/08/10 08:32:17;;;;;;;4.50;1.70;;;21.30;99.90;;;;;;5052983;28;20059;-71
2022/08/10 08:34:44;;;;;;;6.38;2.10;;;21.40;99.90;;;;;;5053102;28;20032;-71
2022/08/10 08:37:13;;;;;;;10.70;2.00;;;21.50;99.90;;;;;;5052769;28;20060;-70
2022/08/10 08:39:40;;;;;;;3.95;2.10;;;21.60;99.90;;;;;;5053266;28;20064;-71
2022/08/10 08:42:36;;;;;;;11.55;2.30;;;21.70;99.90;;;;;;5053379;28;20033;-71
2022/08/10 08:45:30;;;;;;;3.92;2.13;;;21.70;99.90;;;;;;5052996;28;20021;-70
2022/08/10 08:48:14;;;;;;;8.88;2.33;;;21.80;99.90;;;;;;5052869;28;20025;-71
2022/08/10 08:51:01;;;;;;;6.50;1.93;;;21.90;99.90;;;;;;5053044;28;20025;-71
2022/08/10 08:53:47;;;;;;;6.95;2.58;;;22.00;99.90;;;;;;5052522;28;20339;-71
2022/08/10 08:56:27;;;;;;;4.50;2.00;;;22.20;99.90;;;;;;5012158;28;20458;-70
2022/08/10 08:59:26;;;;;;;5.68;1.80;;;22.30;99.90;;;;;;5053059;28;20025;-71
2022/08/10 09:02:06;;;;;;;5.30;2.08;;;22.30;99.90;;;;;;5038388;28;20056;-71
2022/08/10 09:04:56;;;;;;;8.25;2.45;;;22.40;99.90;;;;;;5052914;28;20048;-71
2022/08/10 09:07:37;;;;;;;7.13;2.28;;;22.50;99.90;;;;;;5052922;28;20036;-71
2022/08/10 09:10:33;;;;;;;9.52;2.00;;;22.50;99.90;;;;;;5050301;28;20047;-79
2022/08/10 09:13:25;;;;;;;5.43;1.83;;;22.50;99.90;;;;;;5048799;28;20025;-79
2022/08/10 09:16:28;;;;;;;4.45;2.10;;;22.60;99.90;;;;;;5045179;28;20040;-79
2022/08/10 09:19:09;;;;;;;7.50;2.20;;;22.70;99.90;;;;;;5050624;28;20056;-79
2022/08/10 09:21:56;;;;;;;5.65;1.88;;;22.80;99.90;;;;;;5049045;28;20033;-79
2022/08/10 09:24:30;;;;;;;3.45;1.60;;;22.90;99.90;;;;;;5038121;28;20076;-83
2022/08/10 09:27:02;;;;;;;3.80;2.03;;;23.00;99.90;;;;;;5049969;28;20107;-82
2022/08/10 09:29:41;;;;;;;8.48;1.75;;;23.20;99.90;;;;;;5050324;28;20017;-78
2022/08/10 09:32:09;;;;;;;5.18;1.48;;;23.50;99.90;;;;;;5052242;28;20021;-78
2022/08/10 09:35:01;;;;;;;4.25;1.60;;;23.70;99.90;;;;;;5050236;28;20550;-79
2022/08/10 09:37:59;;;;;;;5.75;1.83;;;23.70;99.90;;;;;;5049117;28;20049;-79
2022/08/10 09:40:34;;;;;;;8.02;1.83;;;23.90;99.90;;;;;;5050249;28;20061;-79
2022/08/10 09:43:17;;;;;;;3.53;1.70;;;23.90;99.90;;;;;;5038266;28;20033;-80
2022/08/10 09:45:58;;;;;;;6.20;1.60;;;24.20;99.90;;;;;;5049755;28;20036;-79
2022/08/10 09:48:42;;;;;;;7.40;1.80;;;24.40;99.90;;;;;;5050287;28;20021;-79
2022/08/10 09:51:29;;;;;;;4.65;1.60;;;24.50;99.90;;;;;;5051393;28;20028;-79
2022/08/10 09:54:17;;;;;;;7.72;1.67;;;24.70;99.90;;;;;;5051948;28;20096;-79
2022/08/10 09:56:55;;;;;;;7.13;1.60;;;24.70;99.90;;;;;;5044190;28;20056;-79
2022/08/10 09:59:56;;;;;;;3.05;1.50;;;25.00;99.90;;;;;;5052690;28;20021;-79
2022/08/10 10:02:37;;;;;;;5.40;1.52;;;25.00;99.90;;;;;;5052873;28;20102;-79
2022/08/10 10:05:29;;;;;;;6.25;1.63;;;25.20;99.90;;;;;;5052463;28;20037;-79
2022/08/10 10:08:22;;;;;;;6.53;1.50;;;25.00;99.30;;;;;;5047094;28;20041;-79
2022/08/10 10:11:09;;;;;;;4.65;1.23;;;25.10;99.20;;;;;;5039930;28;20033;-79
2022/08/10 10:14:05;;;;;;;8.35;2.10;;;25.10;99.80;;;;;;5041879;28;20029;-79
2022/08/10 10:16:53;;;;;;;4.97;1.70;;;25.30;99.90;;;;;;5052565;28;20033;-79
2022/08/10 10:19:36;;;;;;;5.40;1.35;;;25.60;98.40;;;;;;5049962;28;20021;-79
2022/08/10 10:22:34;;;;;;;5.13;1.77;;;25.70;98.00;;;;;;5052687;28;20025;-82
2022/08/10 10:25:12;;;;;;;2.85;1.45;;;25.80;97.90;;;;;;5051354;28;20101;-79
2022/08/10 10:27:47;;;;;;;8.50;1.70;;;26.10;96.90;;;;;;5045558;28;20025;-78
2022/08/10 10:30:16;;;;;;;3.30;1.17;;;26.30;97.50;;;;;;5052839;28;20029;-78
2022/08/10 10:32:44;;;;;;;5.45;1.52;;;26.30;96.20;;;;;;5038783;28;20051;-78
2022/08/10 10:35:33;;;;;;;2.30;1.58;;;26.20;94.60;;;;;;5052507;28;20041;-78
2022/08/10 10:38:01;;;;;;;5.30;1.40;;;26.10;95.60;;;;;;5051045;28;20478;-78
2022/08/10 10:40:34;;;;;;;7.18;1.50;;;26.10;95.30;;;;;;5052760;28;20102;-78
2022/08/10 10:43:06;;;;;;;4.40;1.52;;;26.20;94.60;;;;;;5052128;28;20448;-82
2022/08/10 10:45:42;;;;;;;6.97;1.58;;;26.40;95.20;;;;;;5053342;28;20083;-79
2022/08/10 10:48:08;;;;;;;3.10;1.27;;;26.40;94.10;;;;;;5050531;28;20039;-82
2022/08/10 10:50:57;;;;;;;3.35;1.40;;;26.50;92.60;;;;;;5051079;28;20028;-79
2022/08/10 10:53:42;;;;;;;6.22;1.35;;;26.40;92.80;;;;;;5040221;28;20179;-79
2022/08/10 10:56:15;;;;;;;5.78;1.60;;;26.20;92.20;;;;;;5051740;28;20073;-79
2022/08/10 10:59:11;;;;;;;8.00;2.40;;;26.40;93.60;;;;;;5051914;28;20028;-80
2022/08/10 11:02:13;;;;;;;4.55;2.30;;;26.40;92.90;;;;;;5048510;28;20017;-78
2022/08/10 11:04:45;;;;;;;4.50;1.50;;;26.40;91.90;;;;;;5050872;28;20083;-79
2022/08/10 11:07:33;;;;;;;8.40;1.52;;;26.10;92.10;;;;;;5052181;28;20021;-80
2022/08/10 11:10:05;;;;;;;5.15;1.58;;;26.00;92.50;;;;;;5051019;28;20088;-80
2022/08/10 11:12:42;;;;;;;5.10;1.40;;;26.10;92.80;;;;;;5048283;28;20017;-80
2022/08/10 11:15:27;;;;;;;5.32;1.52;;;26.10;92.30;;;;;;5051047;28;20037;-79
2022/08/10 11:18:32;;;;;;;3.38;1.40;;;26.20;91.60;;;;;;5051442;28;20188;-79
2022/08/10 11:21:21;;;;;;;6.05;1.52;;;26.20;90.90;;;;;;5017696;28;20041;-79
2022/08/10 11:24:01;;;;;;;4.15;1.40;;;26.30;92.10;;;;;;5050736;28;20025;-79
2022/08/10 11:26:33;;;;;;;5.03;1.50;;;26.40;91.60;;;;;;5033484;28;20033;-79
2022/08/10 11:29:14;;;;;;;5.15;1.50;;;26.60;91.80;;;;;;5047945;28;20020;-79
2022/08/10 11:32:16;;;;;;;6.85;1.60;;;26.80;90.80;;;;;;5037520;28;20505;-78
2022/08/10 11:34:58;;;;;;;7.90;1.88;;;27.10;91.70;;;;;;5037383;28;20021;-79
2022/08/10 11:37:56;;;;;;;6.05;1.80;;;27.30;91.10;;;;;;5037199;28;20660;-79
2022/08/10 11:40:51;;;;;;;4.40;1.48;;;27.10;89.50;;;;;;5033368;28;20490;-79
2022/08/10 11:43:21;;;;;;;6.90;1.45;;;27.10;89.50;;;;;;5035412;28;20051;-78
2022/08/10 11:45:53;;;;;;;6.47;1.67;;;27.10;89.20;;;;;;5037742;28;20037;-79
2022/08/10 11:48:25;;;;;;;6.75;1.77;;;26.90;90.10;;;;;;5038653;28;20029;-79
2022/08/10 11:51:46;;;;;;;4.82;1.35;;;26.60;90.10;;;;;;5042149;28;20024;-80
2022/08/10 11:54:16;;;;;;;7.65;2.03;;;26.50;90.10;;;;;;4993126;28;20037;-79
2022/08/10 11:56:51;;;;;;;8.77;1.65;;;26.60;90.40;;;;;;5049891;28;20039;-80
2022/08/10 12:02:05;;;;;;;8.57;1.65;;;27.00;90.20;;;;;;5049737;28;20396;-79
2022/08/10 12:04:32;;;;;;;5.00;1.45;;;27.00;86.40;;;;;;5049644;28;20052;-79
2022/08/10 12:07:03;;;;;;;5.80;1.33;;;27.20;88.40;;;;;;5049536;28;20060;-80
2022/08/10 12:09:30;;;;;;;5.05;1.50;;;27.50;85.80;;;;;;5049349;28;20028;-79
2022/08/10 12:11:58;;;;;;;2.10;1.20;;;27.60;84.10;;;;;;5048065;28;20060;-80
2022/08/10 12:14:33;;;;;;;3.15;1.20;;;27.80;85.60;;;;;;5047748;28;20462;-80
2022/08/10 12:17:12;;;;;;;2.63;1.20;;;27.90;82.30;;;;;;5049055;28;20480;-83
2022/08/10 12:19:53;;;;;;;4.93;1.50;;;27.90;83.40;;;;;;5032505;28;20165;-80
2022/08/10 12:22:26;;;;;;;4.38;1.10;;;27.80;82.90;;;;;;5050102;28;20060;-79
2022/08/10 12:24:55;;;;;;;6.07;1.50;;;28.00;82.20;;;;;;5049673;28;20048;-79
2022/08/10 12:27:28;;;;;;;6.13;1.55;;;28.40;80.50;;;;;;5038910;28;20025;-80
2022/08/10 12:30:03;;;;;;;3.78;1.10;;;28.60;79.80;;;;;;5039027;28;20021;-79
2022/08/10 12:32:41;;;;;;;3.15;1.15;;;28.80;79.40;;;;;;5044696;28;20017;-79
2022/08/10 12:35:30;;;;;;;7.00;1.20;;;28.60;77.80;;;;;;5034146;28;20535;-79
2022/08/10 12:38:20;;;;;;;3.38;1.35;;;28.50;78.10;;;;;;5045021;28;20041;-79
2022/08/10 12:40:52;;;;;;;4.15;1.17;;;28.50;77.90;;;;;;5049875;28;20078;-79
2022/08/10 12:43:29;;;;;;;2.03;1.33;;;28.30;79.00;;;;;;5049915;28;20028;-80
2022/08/10 12:46:06;;;;;;;5.22;1.35;;;28.60;78.20;;;;;;5049987;28;20021;-79
2022/08/10 12:48:38;;;;;;;5.43;1.10;;;28.70;78.10;;;;;;5049535;28;20108;-80
2022/08/10 12:51:16;;;;;;;3.30;1.42;;;28.70;76.90;;;;;;5049174;28;20462;-79
2022/08/10 12:54:10;;;;;;;5.40;1.48;;;28.90;75.90;;;;;;5049466;28;20025;-80
2022/08/10 12:56:49;;;;;;;3.42;1.50;;;28.80;75.60;;;;;;5049347;28;20090;-79
2022/08/10 12:59:18;;;;;;;5.65;1.45;;;28.60;75.40;;;;;;5048303;28;20037;-78
2022/08/10 13:01:50;;;;;;;4.38;1.20;;;28.50;77.80;;;;;;5053250;28;20013;-77
2022/08/10 13:04:23;;;;;;;3.80;1.30;;;28.70;78.40;;;;;;5053113;28;20029;-77
2022/08/10 13:06:50;;;;;;;3.40;1.30;;;28.70;76.00;;;;;;5053072;28;20029;-77
2022/08/10 13:09:25;;;;;;;6.80;1.35;;;28.80;75.10;;;;;;5053064;28;20028;-76
2022/08/10 13:11:58;;;;;;;3.45;1.55;;;28.60;75.70;;;;;;5053374;28;20467;-76
2022/08/10 13:14:37;;;;;;;4.07;1.52;;;28.40;76.60;;;;;;5053053;28;20021;-76
2022/08/10 13:17:06;;;;;;;4.32;1.27;;;28.40;76.90;;;;;;5053046;28;20021;-75
2022/08/10 13:19:42;;;;;;;3.13;1.30;;;28.40;75.60;;;;;;5053318;28;20135;-75
2022/08/10 13:22:10;;;;;;;2.15;1.27;;;28.20;75.50;;;;;;5053218;28;20021;-75